sensor_id;sensor_type;location;lat;lon;timestamp;temperature;humidity
21092;DHT22;10704;42.678;23.288;2022-07-04T00:01:31;21.70;99.90
21092;DHT22;10704;42.678;23.288;2022-07-04T00:03:57;21.60;99.90
21092;DHT22;10704;42.678;23.288;2022-07-04T00:06:24;21.60;99.90
21092;DHT22;10704;42.678;23.288;2022-07-04T00:08:50;21.60;99.90
21092;DHT22;10704;42.678;23.288;2022-07-04T00:11:16;21.60;99.90
21092;DHT22;10704;42.678;23.288;2022-07-04T00:13:42;21.60;99.90
21092;DHT22;10704;42.678;23.288;2022-07-04T00:16:07;21.50;99.90
21092;DHT22;10704;42.678;23.288;2022-07-04T00:18:33;21.40;99.90
21092;DHT22;10704;42.678;23.288;2022-07-04T00:20:59;21.40;99.90
21092;DHT22;10704;42.678;23.288;2022-07-04T00:23:25;21.30;99.90
21092;DHT22;10704;42.678;23.288;2022-07-04T00:25:51;21.30;99.90
21092;DHT22;10704;42.678;23.288;2022-07-04T00:28:17;21.30;99.90
21092;DHT22;10704;42.678;23.288;2022-07-04T00:38:17;21.10;99.90
21092;DHT22;10704;42.678;23.288;2022-07-04T00:40:43;21.00;99.90
21092;DHT22;10704;42.678;23.288;2022-07-04T00:46:57;20.90;99.90
21092;DHT22;10704;42.678;23.288;2022-07-04T00:49:23;20.80;99.90
21092;DHT22;10704;42.678;23.288;2022-07-04T00:58:51;20.70;99.90
21092;DHT22;10704;42.678;23.288;2022-07-04T01:01:19;20.80;99.90
21092;DHT22;10704;42.678;23.288;2022-07-04T01:03:46;20.80;99.90
21092;DHT22;10704;42.678;23.288;2022-07-04T01:13:47;20.60;99.90
21092;DHT22;10704;42.678;23.288;2022-07-04T01:16:13;20.60;99.90
21092;DHT22;10704;42.678;23.288;2022-07-04T01:18:40;20.70;99.90
21092;DHT22;10704;42.678;23.288;2022-07-04T01:24:53;20.50;99.90
21092;DHT22;10704;42.678;23.288;2022-07-04T01:27:19;20.50;99.90
21092;DHT22;10704;42.678;23.288;2022-07-04T01:33:33;20.60;99.90
21092;DHT22;10704;42.678;23.288;2022-07-04T01:35:59;20.50;99.90
21092;DHT22;10704;42.678;23.288;2022-07-04T01:42:12;20.40;99.90
21092;DHT22;10704;42.678;23.288;2022-07-04T01:44:38;20.40;99.90
21092;DHT22;10704;42.678;23.288;2022-07-04T01:47:04;20.40;99.90
21092;DHT22;10704;42.678;23.288;2022-07-04T01:49:31;20.40;99.90
21092;DHT22;10704;42.678;23.288;2022-07-04T01:51:57;20.40;99.90
21092;DHT22;10704;42.678;23.288;2022-07-04T01:54:23;20.40;99.90
21092;DHT22;10704;42.678;23.288;2022-07-04T01:56:50;20.30;99.90
21092;DHT22;10704;42.678;23.288;2022-07-04T01:59:16;20.30;99.90
21092;DHT22;10704;42.678;23.288;2022-07-04T02:01:42;20.30;99.90
21092;DHT22;10704;42.678;23.288;2022-07-04T02:04:08;20.30;99.90
21092;DHT22;10704;42.678;23.288;2022-07-04T02:09:38;20.20;99.90
21092;DHT22;10704;42.678;23.288;2022-07-04T02:15:51;20.20;99.90
21092;DHT22;10704;42.678;23.288;2022-07-04T02:18:17;20.20;99.90
21092;DHT22;10704;42.678;23.288;2022-07-04T02:20:43;20.20;99.90
21092;DHT22;10704;42.678;23.288;2022-07-04T02:26:21;20.10;99.90
21092;DHT22;10704;42.678;23.288;2022-07-04T02:28:46;20.10;99.90
21092;DHT22;10704;42.678;23.288;2022-07-04T02:35:00;20.00;99.90
21092;DHT22;10704;42.678;23.288;2022-07-04T02:37:26;20.00;99.90
21092;DHT22;10704;42.678;23.288;2022-07-04T02:39:52;19.90;99.90
21092;DHT22;10704;42.678;23.288;2022-07-04T02:42:18;19.80;99.90
21092;DHT22;10704;42.678;23.288;2022-07-04T02:44:44;19.90;99.90
21092;DHT22;10704;42.678;23.288;2022-07-04T02:47:19;19.90;99.90
21092;DHT22;10704;42.678;23.288;2022-07-04T02:49:45;20.00;99.90
21092;DHT22;10704;42.678;23.288;2022-07-04T02:55:58;19.70;99.90
21092;DHT22;10704;42.678;23.288;2022-07-04T03:02:11;19.80;99.90
21092;DHT22;10704;42.678;23.288;2022-07-04T03:04:37;19.80;99.90
21092;DHT22;10704;42.678;23.288;2022-07-04T03:07:06;19.80;99.90
21092;DHT22;10704;42.678;23.288;2022-07-04T03:09:33;19.70;99.90
21092;DHT22;10704;42.678;23.288;2022-07-04T03:11:59;19.70;99.90
21092;DHT22;10704;42.678;23.288;2022-07-04T03:18:25;19.70;99.90
21092;DHT22;10704;42.678;23.288;2022-07-04T03:20:51;19.80;99.90
21092;DHT22;10704;42.678;23.288;2022-07-04T03:23:17;19.90;99.90
21092;DHT22;10704;42.678;23.288;2022-07-04T03:25:43;19.90;99.90
21092;DHT22;10704;42.678;23.288;2022-07-04T03:28:09;19.90;99.90
21092;DHT22;10704;42.678;23.288;2022-07-04T03:30:35;19.80;99.90
21092;DHT22;10704;42.678;23.288;2022-07-04T03:33:02;19.80;99.90
21092;DHT22;10704;42.678;23.288;2022-07-04T03:35:28;19.80;99.90
21092;DHT22;10704;42.678;23.288;2022-07-04T03:37:54;19.80;99.90
21092;DHT22;10704;42.678;23.288;2022-07-04T03:40:21;19.80;99.90
21092;DHT22;10704;42.678;23.288;2022-07-04T03:42:47;20.00;99.90
21092;DHT22;10704;42.678;23.288;2022-07-04T03:45:13;20.10;99.90
21092;DHT22;10704;42.678;23.288;2022-07-04T03:47:39;20.00;99.90
21092;DHT22;10704;42.678;23.288;2022-07-04T03:50:05;20.00;99.90
21092;DHT22;10704;42.678;23.288;2022-07-04T03:52:41;20.10;99.90
21092;DHT22;10704;42.678;23.288;2022-07-04T03:55:08;20.20;99.90
21092;DHT22;10704;42.678;23.288;2022-07-04T04:01:21;20.50;99.90
21092;DHT22;10704;42.678;23.288;2022-07-04T04:03:47;20.30;99.90
21092;DHT22;10704;42.678;23.288;2022-07-04T04:06:32;20.20;99.90
21092;DHT22;10704;42.678;23.288;2022-07-04T04:08:58;20.10;99.90
21092;DHT22;10704;42.678;23.288;2022-07-04T04:11:24;20.10;99.90
21092;DHT22;10704;42.678;23.288;2022-07-04T04:13:50;20.20;99.90
21092;DHT22;10704;42.678;23.288;2022-07-04T04:16:16;20.20;99.90
21092;DHT22;10704;42.678;23.288;2022-07-04T04:18:42;20.30;99.90
21092;DHT22;10704;42.678;23.288;2022-07-04T04:24:56;20.40;99.90
21092;DHT22;10704;42.678;23.288;2022-07-04T04:27:23;20.50;99.90
21092;DHT22;10704;42.678;23.288;2022-07-04T04:39:47;20.80;99.90
21092;DHT22;10704;42.678;23.288;2022-07-04T04:42:13;21.00;99.90
21092;DHT22;10704;42.678;23.288;2022-07-04T04:44:39;21.10;99.90
21092;DHT22;10704;42.678;23.288;2022-07-04T04:47:05;21.10;99.90
21092;DHT22;10704;42.678;23.288;2022-07-04T04:49:31;21.20;99.90
21092;DHT22;10704;42.678;23.288;2022-07-04T04:51:57;21.20;99.90
21092;DHT22;10704;42.678;23.288;2022-07-04T04:54:23;21.30;99.90
21092;DHT22;10704;42.678;23.288;2022-07-04T04:56:49;21.40;99.90
21092;DHT22;10704;42.678;23.288;2022-07-04T04:59:14;21.30;99.90
21092;DHT22;10704;42.678;23.288;2022-07-04T05:09:15;21.60;99.90
21092;DHT22;10704;42.678;23.288;2022-07-04T05:15:30;21.80;99.90
21092;DHT22;10704;42.678;23.288;2022-07-04T05:21:01;22.20;99.90
21092;DHT22;10704;42.678;23.288;2022-07-04T05:27:21;22.50;99.90
21092;DHT22;10704;42.678;23.288;2022-07-04T05:37:58;22.80;99.90
21092;DHT22;10704;42.678;23.288;2022-07-04T05:40:24;22.80;99.90
21092;DHT22;10704;42.678;23.288;2022-07-04T05:46:37;22.90;99.90
21092;DHT22;10704;42.678;23.288;2022-07-04T05:49:03;23.00;99.90
21092;DHT22;10704;42.678;23.288;2022-07-04T05:51:29;23.10;99.90
21092;DHT22;10704;42.678;23.288;2022-07-04T05:53:55;23.10;99.90
21092;DHT22;10704;42.678;23.288;2022-07-04T05:59:31;23.40;99.90
21092;DHT22;10704;42.678;23.288;2022-07-04T06:01:56;23.50;99.90
21092;DHT22;10704;42.678;23.288;2022-07-04T06:04:49;23.50;99.90
21092;DHT22;10704;42.678;23.288;2022-07-04T06:07:15;23.60;99.90
21092;DHT22;10704;42.678;23.288;2022-07-04T06:09:43;23.60;99.90
21092;DHT22;10704;42.678;23.288;2022-07-04T06:12:10;23.60;99.90
21092;DHT22;10704;42.678;23.288;2022-07-04T06:14:36;23.70;99.90
21092;DHT22;10704;42.678;23.288;2022-07-04T06:17:03;23.80;99.90
21092;DHT22;10704;42.678;23.288;2022-07-04T06:19:29;24.10;99.90
21092;DHT22;10704;42.678;23.288;2022-07-04T06:21:55;24.30;99.90
21092;DHT22;10704;42.678;23.288;2022-07-04T06:24:21;24.40;99.10
21092;DHT22;10704;42.678;23.288;2022-07-04T06:26:47;24.20;98.40
21092;DHT22;10704;42.678;23.288;2022-07-04T06:29:13;24.00;99.10
21092;DHT22;10704;42.678;23.288;2022-07-04T06:31:39;24.20;98.80
21092;DHT22;10704;42.678;23.288;2022-07-04T06:34:08;24.20;98.00
21092;DHT22;10704;42.678;23.288;2022-07-04T06:36:53;24.50;97.20
21092;DHT22;10704;42.678;23.288;2022-07-04T06:39:19;24.50;96.90
21092;DHT22;10704;42.678;23.288;2022-07-04T06:41:45;24.70;96.00
21092;DHT22;10704;42.678;23.288;2022-07-04T06:44:11;25.00;93.90
21092;DHT22;10704;42.678;23.288;2022-07-04T06:46:37;25.20;90.80
21092;DHT22;10704;42.678;23.288;2022-07-04T06:49:03;25.40;88.50
21092;DHT22;10704;42.678;23.288;2022-07-04T06:54:51;25.80;83.80
21092;DHT22;10704;42.678;23.288;2022-07-04T06:57:17;25.80;82.10
21092;DHT22;10704;42.678;23.288;2022-07-04T07:03:31;26.00;79.90
21092;DHT22;10704;42.678;23.288;2022-07-04T07:05:57;26.40;79.30
21092;DHT22;10704;42.678;23.288;2022-07-04T07:08:23;26.50;79.60
21092;DHT22;10704;42.678;23.288;2022-07-04T07:14:01;26.70;78.50
21092;DHT22;10704;42.678;23.288;2022-07-04T07:16:27;26.70;78.20
21092;DHT22;10704;42.678;23.288;2022-07-04T07:22:41;27.20;77.00
21092;DHT22;10704;42.678;23.288;2022-07-04T07:25:09;27.40;76.40
21092;DHT22;10704;42.678;23.288;2022-07-04T07:27:36;27.20;77.40
21092;DHT22;10704;42.678;23.288;2022-07-04T07:30:04;27.00;77.80
21092;DHT22;10704;42.678;23.288;2022-07-04T07:32:30;27.10;78.10
21092;DHT22;10704;42.678;23.288;2022-07-04T07:34:56;27.40;77.20
21092;DHT22;10704;42.678;23.288;2022-07-04T07:37:22;27.70;76.90
21092;DHT22;10704;42.678;23.288;2022-07-04T07:43:55;28.10;75.30
21092;DHT22;10704;42.678;23.288;2022-07-04T07:46:21;28.30;74.20
21092;DHT22;10704;42.678;23.288;2022-07-04T07:48:47;28.30;75.00
21092;DHT22;10704;42.678;23.288;2022-07-04T07:51:13;28.50;74.40
21092;DHT22;10704;42.678;23.288;2022-07-04T07:56:50;29.10;73.40
21092;DHT22;10704;42.678;23.288;2022-07-04T08:02:46;29.20;73.00
21092;DHT22;10704;42.678;23.288;2022-07-04T08:05:31;28.80;73.90
21092;DHT22;10704;42.678;23.288;2022-07-04T08:07:57;29.20;73.60
21092;DHT22;10704;42.678;23.288;2022-07-04T08:13:31;29.50;72.60
21092;DHT22;10704;42.678;23.288;2022-07-04T08:15:57;29.90;72.30
21092;DHT22;10704;42.678;23.288;2022-07-04T08:18:23;29.90;71.90
21092;DHT22;10704;42.678;23.288;2022-07-04T08:20:50;30.10;71.70
21092;DHT22;10704;42.678;23.288;2022-07-04T08:23:16;30.50;71.10
21092;DHT22;10704;42.678;23.288;2022-07-04T08:25:42;30.80;70.30
21092;DHT22;10704;42.678;23.288;2022-07-04T08:28:08;31.20;69.60
21092;DHT22;10704;42.678;23.288;2022-07-04T08:30:34;30.90;69.40
21092;DHT22;10704;42.678;23.288;2022-07-04T08:33:00;30.80;69.90
21092;DHT22;10704;42.678;23.288;2022-07-04T08:35:26;30.80;69.80
21092;DHT22;10704;42.678;23.288;2022-07-04T08:37:53;30.70;70.10
21092;DHT22;10704;42.678;23.288;2022-07-04T08:40:26;30.60;69.60
21092;DHT22;10704;42.678;23.288;2022-07-04T08:42:53;30.70;70.90
21092;DHT22;10704;42.678;23.288;2022-07-04T08:45:27;31.00;69.70
21092;DHT22;10704;42.678;23.288;2022-07-04T08:48:01;30.80;70.20
21092;DHT22;10704;42.678;23.288;2022-07-04T08:53:50;31.80;68.60
21092;DHT22;10704;42.678;23.288;2022-07-04T08:56:19;32.00;68.50
21092;DHT22;10704;42.678;23.288;2022-07-04T08:59:05;32.10;68.20
21092;DHT22;10704;42.678;23.288;2022-07-04T09:01:32;32.30;67.30
21092;DHT22;10704;42.678;23.288;2022-07-04T09:03:58;32.50;67.00
21092;DHT22;10704;42.678;23.288;2022-07-04T09:06:26;32.90;66.30
21092;DHT22;10704;42.678;23.288;2022-07-04T09:08:54;32.60;66.20
21092;DHT22;10704;42.678;23.288;2022-07-04T09:11:20;32.40;66.70
21092;DHT22;10704;42.678;23.288;2022-07-04T09:16:43;32.80;66.10
21092;DHT22;10704;42.678;23.288;2022-07-04T09:22:58;33.20;64.70
21092;DHT22;10704;42.678;23.288;2022-07-04T09:25:25;33.30;63.60
21092;DHT22;10704;42.678;23.288;2022-07-04T09:27:53;33.70;62.00
21092;DHT22;10704;42.678;23.288;2022-07-04T09:30:22;33.70;62.20
21092;DHT22;10704;42.678;23.288;2022-07-04T09:32:51;34.10;61.70
21092;DHT22;10704;42.678;23.288;2022-07-04T09:35:19;34.60;60.60
21092;DHT22;10704;42.678;23.288;2022-07-04T09:37:51;34.50;60.10
21092;DHT22;10704;42.678;23.288;2022-07-04T09:40:34;34.80;59.00
21092;DHT22;10704;42.678;23.288;2022-07-04T09:49:30;32.70;62.20
21092;DHT22;10704;42.678;23.288;2022-07-04T09:51:56;33.80;60.40
21092;DHT22;10704;42.678;23.288;2022-07-04T09:54:26;34.20;58.70
21092;DHT22;10704;42.678;23.288;2022-07-04T10:00:17;34.50;58.40
21092;DHT22;10704;42.678;23.288;2022-07-04T10:02:43;34.80;57.90
21092;DHT22;10704;42.678;23.288;2022-07-04T10:05:10;34.60;59.20
21092;DHT22;10704;42.678;23.288;2022-07-04T10:15:11;35.20;57.80
21092;DHT22;10704;42.678;23.288;2022-07-04T10:17:37;36.00;55.90
21092;DHT22;10704;42.678;23.288;2022-07-04T10:23:50;36.30;56.60
21092;DHT22;10704;42.678;23.288;2022-07-04T10:26:19;36.30;55.30
21092;DHT22;10704;42.678;23.288;2022-07-04T10:28:45;36.20;55.30
21092;DHT22;10704;42.678;23.288;2022-07-04T10:31:14;35.60;56.60
21092;DHT22;10704;42.678;23.288;2022-07-04T10:33:41;36.20;56.70
21092;DHT22;10704;42.678;23.288;2022-07-04T10:36:25;36.80;55.50
21092;DHT22;10704;42.678;23.288;2022-07-04T10:39:01;36.10;56.40
21092;DHT22;10704;42.678;23.288;2022-07-04T10:41:29;35.90;57.40
21092;DHT22;10704;42.678;23.288;2022-07-04T10:44:02;35.20;57.90
21092;DHT22;10704;42.678;23.288;2022-07-04T10:46:48;35.50;57.10
21092;DHT22;10704;42.678;23.288;2022-07-04T10:55:29;34.50;57.30
21092;DHT22;10704;42.678;23.288;2022-07-04T11:11:51;37.30;53.90
21092;DHT22;10704;42.678;23.288;2022-07-04T11:14:43;37.40;53.60
21092;DHT22;10704;42.678;23.288;2022-07-04T11:19:36;36.70;54.50
21092;DHT22;10704;42.678;23.288;2022-07-04T11:29:52;36.80;54.00
21092;DHT22;10704;42.678;23.288;2022-07-04T11:32:54;36.80;54.10
21092;DHT22;10704;42.678;23.288;2022-07-04T11:35:20;36.70;54.40
21092;DHT22;10704;42.678;23.288;2022-07-04T11:41:37;37.40;53.70
21092;DHT22;10704;42.678;23.288;2022-07-04T11:44:32;36.60;54.10
21092;DHT22;10704;42.678;23.288;2022-07-04T11:47:21;35.30;55.20
21092;DHT22;10704;42.678;23.288;2022-07-04T11:50:20;34.50;56.70
21092;DHT22;10704;42.678;23.288;2022-07-04T11:52:47;34.80;56.60
21092;DHT22;10704;42.678;23.288;2022-07-04T11:58:42;35.00;57.20
21092;DHT22;10704;42.678;23.288;2022-07-04T12:01:11;35.80;56.20
21092;DHT22;10704;42.678;23.288;2022-07-04T12:03:37;36.10;55.00
21092;DHT22;10704;42.678;23.288;2022-07-04T12:09:50;35.70;55.40
21092;DHT22;10704;42.678;23.288;2022-07-04T12:16:11;35.20;56.30
21092;DHT22;10704;42.678;23.288;2022-07-04T12:18:37;35.60;56.40
21092;DHT22;10704;42.678;23.288;2022-07-04T12:21:15;36.10;55.00
21092;DHT22;10704;42.678;23.288;2022-07-04T12:23:51;37.00;53.90
21092;DHT22;10704;42.678;23.288;2022-07-04T12:30:05;36.50;53.70
21092;DHT22;10704;42.678;23.288;2022-07-04T12:36:32;36.10;54.90
21092;DHT22;10704;42.678;23.288;2022-07-04T12:38:58;35.70;55.90
21092;DHT22;10704;42.678;23.288;2022-07-04T12:41:30;35.20;55.90
21092;DHT22;10704;42.678;23.288;2022-07-04T12:43:56;36.40;55.20
21092;DHT22;10704;42.678;23.288;2022-07-04T12:46:33;36.70;54.30
21092;DHT22;10704;42.678;23.288;2022-07-04T12:49:34;36.80;54.70
21092;DHT22;10704;42.678;23.288;2022-07-04T12:52:18;37.10;54.20
21092;DHT22;10704;42.678;23.288;2022-07-04T12:54:44;37.10;54.20
21092;DHT22;10704;42.678;23.288;2022-07-04T13:08:03;36.10;55.60
21092;DHT22;10704;42.678;23.288;2022-07-04T13:10:29;36.10;55.40
21092;DHT22;10704;42.678;23.288;2022-07-04T13:12:58;36.10;55.20
21092;DHT22;10704;42.678;23.288;2022-07-04T13:15:24;36.20;55.60
21092;DHT22;10704;42.678;23.288;2022-07-04T13:17:50;36.10;56.00
21092;DHT22;10704;42.678;23.288;2022-07-04T13:20:16;36.40;55.20
21092;DHT22;10704;42.678;23.288;2022-07-04T13:22:42;36.30;55.30
21092;DHT22;10704;42.678;23.288;2022-07-04T13:25:08;35.60;56.60
21092;DHT22;10704;42.678;23.288;2022-07-04T13:38:56;37.10;54.60
21092;DHT22;10704;42.678;23.288;2022-07-04T13:41:22;37.40;52.90
21092;DHT22;10704;42.678;23.288;2022-07-04T13:43:48;37.00;53.30
21092;DHT22;10704;42.678;23.288;2022-07-04T13:46:13;36.50;54.30
21092;DHT22;10704;42.678;23.288;2022-07-04T13:48:39;36.30;54.20
21092;DHT22;10704;42.678;23.288;2022-07-04T13:54:53;36.30;54.40
21092;DHT22;10704;42.678;23.288;2022-07-04T13:57:19;36.00;55.10
21092;DHT22;10704;42.678;23.288;2022-07-04T13:59:45;36.60;54.40
21092;DHT22;10704;42.678;23.288;2022-07-04T14:02:11;36.30;54.30
21092;DHT22;10704;42.678;23.288;2022-07-04T14:04:36;36.70;54.30
21092;DHT22;10704;42.678;23.288;2022-07-04T14:07:03;37.00;53.80
21092;DHT22;10704;42.678;23.288;2022-07-04T14:09:34;37.20;52.90
21092;DHT22;10704;42.678;23.288;2022-07-04T14:12:00;37.00;52.80
21092;DHT22;10704;42.678;23.288;2022-07-04T14:18:48;36.60;53.90
21092;DHT22;10704;42.678;23.288;2022-07-04T14:21:14;37.20;53.70
21092;DHT22;10704;42.678;23.288;2022-07-04T14:27:27;37.10;54.40
21092;DHT22;10704;42.678;23.288;2022-07-04T14:29:53;37.00;54.20
21092;DHT22;10704;42.678;23.288;2022-07-04T14:32:19;36.90;54.40
21092;DHT22;10704;42.678;23.288;2022-07-04T14:34:45;36.00;55.30
21092;DHT22;10704;42.678;23.288;2022-07-04T14:37:11;35.90;55.50
21092;DHT22;10704;42.678;23.288;2022-07-04T14:39:37;35.90;55.50
21092;DHT22;10704;42.678;23.288;2022-07-04T14:42:03;35.80;55.50
21092;DHT22;10704;42.678;23.288;2022-07-04T14:44:48;36.00;55.10
21092;DHT22;10704;42.678;23.288;2022-07-04T14:47:14;35.80;55.30
21092;DHT22;10704;42.678;23.288;2022-07-04T14:53:27;35.60;56.30
21092;DHT22;10704;42.678;23.288;2022-07-04T14:55:54;35.80;56.00
21092;DHT22;10704;42.678;23.288;2022-07-04T14:58:20;35.50;56.70
21092;DHT22;10704;42.678;23.288;2022-07-04T15:00:45;35.60;56.60
21092;DHT22;10704;42.678;23.288;2022-07-04T15:03:11;35.70;56.70
21092;DHT22;10704;42.678;23.288;2022-07-04T15:05:37;36.10;56.50
21092;DHT22;10704;42.678;23.288;2022-07-04T15:08:03;35.90;56.70
21092;DHT22;10704;42.678;23.288;2022-07-04T15:10:57;36.10;57.00
21092;DHT22;10704;42.678;23.288;2022-07-04T15:17:11;36.50;55.50
21092;DHT22;10704;42.678;23.288;2022-07-04T15:19:37;36.30;54.80
21092;DHT22;10704;42.678;23.288;2022-07-04T15:29:32;34.50;57.70
21092;DHT22;10704;42.678;23.288;2022-07-04T15:31:58;35.20;57.00
21092;DHT22;10704;42.678;23.288;2022-07-04T15:34:47;35.60;56.70
21092;DHT22;10704;42.678;23.288;2022-07-04T15:37:13;35.70;56.50
21092;DHT22;10704;42.678;23.288;2022-07-04T15:39:39;35.50;56.00
21092;DHT22;10704;42.678;23.288;2022-07-04T15:45:52;34.90;56.60
21092;DHT22;10704;42.678;23.288;2022-07-04T15:51:45;34.30;58.60
21092;DHT22;10704;42.678;23.288;2022-07-04T15:54:10;33.40;60.60
21092;DHT22;10704;42.678;23.288;2022-07-04T15:56:36;33.10;61.30
21092;DHT22;10704;42.678;23.288;2022-07-04T15:59:02;32.90;61.80
21092;DHT22;10704;42.678;23.288;2022-07-04T16:01:28;32.70;62.60
21092;DHT22;10704;42.678;23.288;2022-07-04T16:07:42;32.10;64.50
21092;DHT22;10704;42.678;23.288;2022-07-04T16:10:08;32.10;64.80
21092;DHT22;10704;42.678;23.288;2022-07-04T16:12:34;31.70;65.90
21092;DHT22;10704;42.678;23.288;2022-07-04T16:15:00;31.30;67.00
21092;DHT22;10704;42.678;23.288;2022-07-04T16:17:26;31.30;67.20
21092;DHT22;10704;42.678;23.288;2022-07-04T16:19:52;31.20;67.10
21092;DHT22;10704;42.678;23.288;2022-07-04T16:22:18;31.40;66.90
21092;DHT22;10704;42.678;23.288;2022-07-04T16:28:32;31.30;67.70
21092;DHT22;10704;42.678;23.288;2022-07-04T16:30:58;31.10;68.10
21092;DHT22;10704;42.678;23.288;2022-07-04T16:33:24;31.10;68.10
21092;DHT22;10704;42.678;23.288;2022-07-04T16:35:50;30.90;68.80
21092;DHT22;10704;42.678;23.288;2022-07-04T16:38:16;31.00;68.50
21092;DHT22;10704;42.678;23.288;2022-07-04T16:40:43;30.90;68.50
21092;DHT22;10704;42.678;23.288;2022-07-04T16:43:10;31.00;68.60
21092;DHT22;10704;42.678;23.288;2022-07-04T16:45:36;31.30;67.80
21092;DHT22;10704;42.678;23.288;2022-07-04T16:48:03;31.10;67.70
21092;DHT22;10704;42.678;23.288;2022-07-04T16:50:35;31.10;68.10
21092;DHT22;10704;42.678;23.288;2022-07-04T16:53:05;30.70;68.60
21092;DHT22;10704;42.678;23.288;2022-07-04T16:55:32;30.60;69.20
21092;DHT22;10704;42.678;23.288;2022-07-04T16:58:03;30.50;69.50
21092;DHT22;10704;42.678;23.288;2022-07-04T17:00:29;30.50;69.50
21092;DHT22;10704;42.678;23.288;2022-07-04T17:02:55;30.30;70.00
21092;DHT22;10704;42.678;23.288;2022-07-04T17:05:21;30.30;70.70
21092;DHT22;10704;42.678;23.288;2022-07-04T17:07:47;30.00;71.50
21092;DHT22;10704;42.678;23.288;2022-07-04T17:14:01;29.50;73.30
21092;DHT22;10704;42.678;23.288;2022-07-04T17:16:59;29.50;73.90
21092;DHT22;10704;42.678;23.288;2022-07-04T17:23:12;29.10;75.60
21092;DHT22;10704;42.678;23.288;2022-07-04T17:25:39;29.10;76.10
21092;DHT22;10704;42.678;23.288;2022-07-04T17:28:09;29.10;76.20
21092;DHT22;10704;42.678;23.288;2022-07-04T17:30:37;29.00;75.40
21092;DHT22;10704;42.678;23.288;2022-07-04T17:33:03;29.00;75.50
21092;DHT22;10704;42.678;23.288;2022-07-04T17:35:29;29.00;75.20
21092;DHT22;10704;42.678;23.288;2022-07-04T17:41:42;28.70;76.10
21092;DHT22;10704;42.678;23.288;2022-07-04T17:44:16;28.50;76.20
21092;DHT22;10704;42.678;23.288;2022-07-04T17:54:18;28.20;76.90
21092;DHT22;10704;42.678;23.288;2022-07-04T17:56:44;28.00;77.00
21092;DHT22;10704;42.678;23.288;2022-07-04T17:59:10;27.90;77.40
21092;DHT22;10704;42.678;23.288;2022-07-04T18:01:37;27.70;77.50
21092;DHT22;10704;42.678;23.288;2022-07-04T18:04:03;27.70;77.80
21092;DHT22;10704;42.678;23.288;2022-07-04T18:06:34;27.70;78.10
21092;DHT22;10704;42.678;23.288;2022-07-04T18:09:05;27.60;78.20
21092;DHT22;10704;42.678;23.288;2022-07-04T18:11:31;27.50;78.70
21092;DHT22;10704;42.678;23.288;2022-07-04T18:13:57;27.40;78.70
21092;DHT22;10704;42.678;23.288;2022-07-04T18:23:29;27.20;79.60
21092;DHT22;10704;42.678;23.288;2022-07-04T18:25:55;27.10;79.60
21092;DHT22;10704;42.678;23.288;2022-07-04T18:28:21;27.00;79.70
21092;DHT22;10704;42.678;23.288;2022-07-04T18:30:47;27.00;79.90
21092;DHT22;10704;42.678;23.288;2022-07-04T18:33:19;27.10;80.00
21092;DHT22;10704;42.678;23.288;2022-07-04T18:35:45;27.00;79.90
21092;DHT22;10704;42.678;23.288;2022-07-04T18:38:11;27.00;80.10
21092;DHT22;10704;42.678;23.288;2022-07-04T18:40:37;26.90;80.20
21092;DHT22;10704;42.678;23.288;2022-07-04T18:43:21;26.90;80.40
21092;DHT22;10704;42.678;23.288;2022-07-04T18:45:59;26.80;80.10
21092;DHT22;10704;42.678;23.288;2022-07-04T18:48:27;26.80;80.10
21092;DHT22;10704;42.678;23.288;2022-07-04T18:50:54;26.80;79.80
21092;DHT22;10704;42.678;23.288;2022-07-04T18:53:21;26.80;79.90
21092;DHT22;10704;42.678;23.288;2022-07-04T18:55:47;26.70;79.60
21092;DHT22;10704;42.678;23.288;2022-07-04T18:58:13;26.70;79.30
21092;DHT22;10704;42.678;23.288;2022-07-04T19:00:39;26.70;79.70
21092;DHT22;10704;42.678;23.288;2022-07-04T19:03:07;26.60;79.50
21092;DHT22;10704;42.678;23.288;2022-07-04T19:05:33;26.60;79.60
21092;DHT22;10704;42.678;23.288;2022-07-04T19:08:00;26.50;79.30
21092;DHT22;10704;42.678;23.288;2022-07-04T19:10:28;26.50;79.60
21092;DHT22;10704;42.678;23.288;2022-07-04T19:16:13;26.50;79.50
21092;DHT22;10704;42.678;23.288;2022-07-04T19:22:34;26.40;79.70
21092;DHT22;10704;42.678;23.288;2022-07-04T19:25:04;26.40;79.80
21092;DHT22;10704;42.678;23.288;2022-07-04T19:27:31;26.30;80.00
21092;DHT22;10704;42.678;23.288;2022-07-04T19:29:58;26.20;80.20
21092;DHT22;10704;42.678;23.288;2022-07-04T19:32:26;26.30;80.40
21092;DHT22;10704;42.678;23.288;2022-07-04T19:35:08;26.20;80.40
21092;DHT22;10704;42.678;23.288;2022-07-04T19:37:35;26.30;80.40
21092;DHT22;10704;42.678;23.288;2022-07-04T19:43:49;26.20;80.30
21092;DHT22;10704;42.678;23.288;2022-07-04T19:46:15;26.10;80.40
21092;DHT22;10704;42.678;23.288;2022-07-04T19:48:41;26.10;80.40
21092;DHT22;10704;42.678;23.288;2022-07-04T19:51:07;26.00;80.50
21092;DHT22;10704;42.678;23.288;2022-07-04T19:53:37;25.90;80.20
21092;DHT22;10704;42.678;23.288;2022-07-04T19:56:04;26.00;80.50
21092;DHT22;10704;42.678;23.288;2022-07-04T19:58:30;25.90;80.30
21092;DHT22;10704;42.678;23.288;2022-07-04T20:04:45;25.80;80.90
21092;DHT22;10704;42.678;23.288;2022-07-04T20:07:22;25.70;81.10
21092;DHT22;10704;42.678;23.288;2022-07-04T20:09:49;25.50;81.70
21092;DHT22;10704;42.678;23.288;2022-07-04T20:12:14;25.50;82.70
21092;DHT22;10704;42.678;23.288;2022-07-04T20:14:40;25.40;83.40
21092;DHT22;10704;42.678;23.288;2022-07-04T20:17:27;25.30;84.10
21092;DHT22;10704;42.678;23.288;2022-07-04T20:20:17;25.20;84.90
21092;DHT22;10704;42.678;23.288;2022-07-04T20:22:43;25.00;85.90
21092;DHT22;10704;42.678;23.288;2022-07-04T20:29:02;24.80;87.60
21092;DHT22;10704;42.678;23.288;2022-07-04T20:35:23;24.60;88.40
21092;DHT22;10704;42.678;23.288;2022-07-04T20:37:50;24.40;88.20
21092;DHT22;10704;42.678;23.288;2022-07-04T20:40:17;24.50;88.10
21092;DHT22;10704;42.678;23.288;2022-07-04T20:42:43;24.40;88.20
21092;DHT22;10704;42.678;23.288;2022-07-04T20:45:10;24.40;88.40
21092;DHT22;10704;42.678;23.288;2022-07-04T20:47:37;24.40;88.70
21092;DHT22;10704;42.678;23.288;2022-07-04T20:53:28;24.20;90.00
21092;DHT22;10704;42.678;23.288;2022-07-04T20:55:54;24.20;90.20
21092;DHT22;10704;42.678;23.288;2022-07-04T21:01:41;24.20;90.60
21092;DHT22;10704;42.678;23.288;2022-07-04T21:04:18;24.20;90.70
21092;DHT22;10704;42.678;23.288;2022-07-04T21:06:44;24.10;91.20